Time;durP1;ratioP1;P1;durP2;ratioP2;P2;SDS_P1;SDS_P2;PMS_P1;PMS_P2;Temp;Humidity;BMP_temperature;BMP_pressure;BME280_temperature;BME280_humidity;BME280_pressure;Samples;Min_cycle;Max_cycle;Signal;HPM_P1;HPM_P2
2022/03/17 00:01:28;;;;;;;23.38;17.00;;;11.10;93.30;;;;;;5014443;28;20127;-60
2022/03/17 00:03:54;;;;;;;24.52;17.55;;;11.10;93.30;;;;;;5008957;28;20044;-60
2022/03/17 00:06:19;;;;;;;27.63;17.92;;;11.00;93.50;;;;;;5006955;28;22946;-61
2022/03/17 00:08:45;;;;;;;25.20;19.02;;;11.10;93.50;;;;;;5017454;28;20043;-60
2022/03/17 00:11:11;;;;;;;26.50;19.73;;;11.10;93.60;;;;;;5009109;28;20121;-60
2022/03/17 00:13:37;;;;;;;25.70;19.52;;;11.10;93.80;;;;;;5024835;28;20121;-60
2022/03/17 00:16:04;;;;;;;26.02;17.83;;;11.00;93.90;;;;;;5011586;28;20211;-59
2022/03/17 00:18:30;;;;;;;26.27;19.15;;;11.00;94.00;;;;;;5013832;28;20037;-60
2022/03/17 00:20:56;;;;;;;26.80;19.02;;;11.00;94.10;;;;;;5018725;28;20422;-60
2022/03/17 00:23:22;;;;;;;27.80;19.80;;;11.00;94.30;;;;;;5006198;28;20089;-61
2022/03/17 00:25:48;;;;;;;26.65;19.20;;;11.00;94.70;;;;;;5010832;28;20068;-60
2022/03/17 00:28:14;;;;;;;31.40;20.05;;;10.90;94.80;;;;;;5021872;28;20418;-61
2022/03/17 00:30:40;;;;;;;26.60;19.30;;;10.90;95.00;;;;;;5005022;28;20045;-59
2022/03/17 00:33:06;;;;;;;28.17;19.55;;;11.00;95.10;;;;;;4990928;28;20053;-60
2022/03/17 00:35:35;;;;;;;28.48;19.45;;;11.00;95.30;;;;;;4992803;28;20108;-60
2022/03/17 00:38:02;;;;;;;26.45;19.23;;;10.90;95.40;;;;;;4986969;28;20041;-60
2022/03/17 00:40:28;;;;;;;28.42;19.75;;;10.90;96.00;;;;;;5010723;28;20497;-60
2022/03/17 00:42:55;;;;;;;26.98;19.75;;;10.90;95.70;;;;;;5017095;28;20042;-61
2022/03/17 00:45:25;;;;;;;26.83;19.90;;;10.90;95.80;;;;;;5017637;28;20421;-61
2022/03/17 00:47:51;;;;;;;29.15;19.50;;;10.90;95.80;;;;;;5004423;28;20121;-61
2022/03/17 00:50:18;;;;;;;26.88;19.98;;;10.90;95.80;;;;;;5007455;28;20072;-60
2022/03/17 00:52:43;;;;;;;27.70;19.50;;;10.90;95.90;;;;;;5005759;28;20081;-60
2022/03/17 00:55:09;;;;;;;25.98;18.70;;;10.90;95.80;;;;;;5007693;28;20127;-61
2022/03/17 00:57:36;;;;;;;27.52;20.02;;;10.90;95.80;;;;;;5005810;28;20427;-60
2022/03/17 01:00:05;;;;;;;28.02;19.52;;;10.90;95.80;;;;;;5005028;28;20042;-60
2022/03/17 01:02:31;;;;;;;26.50;20.08;;;10.90;95.80;;;;;;5011437;28;20052;-59
2022/03/17 01:04:57;;;;;;;30.65;20.10;;;10.90;95.90;;;;;;5007119;28;20041;-60
2022/03/17 01:07:24;;;;;;;30.67;20.08;;;11.00;95.90;;;;;;5015213;28;20433;-61
2022/03/17 01:09:49;;;;;;;27.63;21.00;;;10.90;95.90;;;;;;4988468;28;20402;-60
2022/03/17 01:12:15;;;;;;;27.60;20.63;;;11.00;95.90;;;;;;5004235;28;20050;-61
2022/03/17 01:14:41;;;;;;;27.60;19.98;;;10.90;95.80;;;;;;5010103;28;20763;-61
2022/03/17 01:17:08;;;;;;;26.42;20.23;;;11.00;95.80;;;;;;5011384;28;20053;-61
2022/03/17 01:19:34;;;;;;;26.42;19.92;;;11.00;95.80;;;;;;5013964;28;20477;-60
2022/03/17 01:22:00;;;;;;;30.00;20.33;;;11.00;95.80;;;;;;4993944;28;20099;-60
2022/03/17 01:24:25;;;;;;;26.52;19.38;;;11.00;95.90;;;;;;5008857;28;20041;-61
2022/03/17 01:26:51;;;;;;;24.88;19.33;;;11.00;95.90;;;;;;5009919;28;20116;-60
2022/03/17 01:29:17;;;;;;;30.67;21.25;;;11.00;96.00;;;;;;5028879;22;20121;-84
2022/03/17 01:31:43;;;;;;;25.15;19.58;;;11.30;96.10;;;;;;4968304;28;20088;-83
2022/03/17 01:34:09;;;;;;;29.10;21.40;;;11.00;96.30;;;;;;4933089;28;20042;-83
2022/03/17 01:36:35;;;;;;;28.48;20.65;;;11.00;96.40;;;;;;4916974;28;20413;-84
2022/03/17 01:39:01;;;;;;;26.50;20.15;;;11.10;96.40;;;;;;4935994;28;20493;-84
2022/03/17 01:41:26;;;;;;;26.10;20.58;;;11.00;96.50;;;;;;4949448;28;20050;-84
2022/03/17 01:43:52;;;;;;;29.15;19.95;;;11.00;96.40;;;;;;4933105;28;20129;-82
2022/03/17 01:46:18;;;;;;;26.50;19.52;;;11.00;96.40;;;;;;4919171;28;20121;-83
2022/03/17 01:48:44;;;;;;;26.85;20.30;;;11.10;96.70;;;;;;4932987;28;20027;-83
2022/03/17 01:51:10;;;;;;;26.42;21.08;;;11.00;96.50;;;;;;4949116;28;20112;-84
2022/03/17 01:53:37;;;;;;;27.73;20.20;;;11.00;96.90;;;;;;4952523;28;20046;-83
2022/03/17 01:56:03;;;;;;;27.45;20.85;;;11.00;97.00;;;;;;4951176;28;20140;-83
2022/03/17 01:58:29;;;;;;;28.92;21.92;;;11.00;97.20;;;;;;4959731;28;20133;-84
2022/03/17 02:00:55;;;;;;;28.33;21.65;;;11.00;97.80;;;;;;4932895;28;20129;-82
2022/03/17 02:03:20;;;;;;;30.58;21.50;;;10.90;98.20;;;;;;4959062;28;20117;-84
2022/03/17 02:05:46;;;;;;;29.88;22.00;;;10.90;98.60;;;;;;4934375;28;20117;-83
2022/03/17 02:08:15;;;;;;;31.00;21.90;;;10.80;98.80;;;;;;4933868;28;20031;-84
2022/03/17 02:13:25;;;;;;;;;;;10.70;99.60;;;;;;4962050;28;20054;-84
2022/03/17 02:15:52;;;;;;;27.20;22.15;;;10.70;99.90;;;;;;4952662;28;19918;-84
2022/03/17 02:18:18;;;;;;;30.38;22.48;;;10.70;99.90;;;;;;4952959;28;20121;-84
2022/03/17 02:20:44;;;;;;;30.10;23.48;;;10.70;99.90;;;;;;4952513;28;20046;-83
2022/03/17 02:25:57;;;;;;;30.25;23.30;;;10.80;99.90;;;;;;4964906;28;20042;-82
2022/03/17 02:28:24;;;;;;;27.92;21.08;;;10.70;99.90;;;;;;4954714;28;20038;-83
2022/03/17 02:30:50;;;;;;;33.42;22.90;;;10.70;99.90;;;;;;4959761;28;20041;-83
2022/03/17 02:33:16;;;;;;;31.50;23.10;;;10.70;99.90;;;;;;4932608;28;20042;-83
2022/03/17 02:35:43;;;;;;;31.88;24.10;;;10.70;99.90;;;;;;4947237;28;20234;-84
2022/03/17 02:38:13;;;;;;;31.98;24.77;;;10.70;99.90;;;;;;4931986;28;20549;-83
2022/03/17 02:40:40;;;;;;;31.63;23.80;;;10.70;99.90;;;;;;4937048;28;20043;-84
2022/03/17 02:43:07;;;;;;;32.97;24.55;;;10.70;99.90;;;;;;4951752;28;20039;-83
2022/03/17 02:45:34;;;;;;;33.08;24.02;;;10.70;99.90;;;;;;4968979;28;20049;-84
2022/03/17 02:48:01;;;;;;;31.40;24.65;;;10.70;99.90;;;;;;4939533;28;20034;-83
2022/03/17 02:50:27;;;;;;;31.90;25.13;;;10.70;99.90;;;;;;4973261;28;20046;-83
2022/03/17 02:52:52;;;;;;;33.17;24.65;;;10.70;99.90;;;;;;4956452;28;20145;-84
2022/03/17 02:55:18;;;;;;;35.17;24.88;;;11.20;99.90;;;;;;4964953;28;20034;-84
2022/03/17 02:57:45;;;;;;;35.90;25.73;;;10.70;99.90;;;;;;4937558;28;20046;-83
2022/03/17 03:00:12;;;;;;;34.58;25.67;;;10.70;99.90;;;;;;4947983;28;20504;-82
2022/03/17 03:02:38;;;;;;;33.33;25.77;;;10.70;99.90;;;;;;4936578;28;20072;-84
2022/03/17 03:05:05;;;;;;;37.88;27.70;;;10.70;99.90;;;;;;4951260;28;20512;-83
2022/03/17 03:07:31;;;;;;;35.03;26.27;;;10.80;99.90;;;;;;4971047;28;20492;-84
2022/03/17 03:09:57;;;;;;;35.33;26.95;;;10.80;99.90;;;;;;4966940;28;20042;-84
2022/03/17 03:12:23;;;;;;;34.28;25.75;;;10.70;99.90;;;;;;4967569;28;20045;-83
2022/03/17 03:14:50;;;;;;;37.75;28.23;;;10.70;99.90;;;;;;4944180;28;20039;-83
2022/03/17 03:17:16;;;;;;;36.28;28.08;;;10.80;99.90;;;;;;4954355;28;20049;-83
2022/03/17 03:19:42;;;;;;;36.85;28.52;;;10.80;99.90;;;;;;4953499;28;20038;-83
2022/03/17 03:22:08;;;;;;;38.40;29.20;;;10.80;99.90;;;;;;4937862;28;20049;-84
2022/03/17 03:24:36;;;;;;;36.95;27.35;;;10.80;99.90;;;;;;4932296;28;20038;-82
2022/03/17 03:27:03;;;;;;;43.13;30.58;;;10.70;99.90;;;;;;4963623;28;20120;-84
2022/03/17 03:29:30;;;;;;;40.88;31.42;;;10.70;99.90;;;;;;4962296;28;20050;-84
2022/03/17 03:31:58;;;;;;;41.38;30.80;;;10.60;99.90;;;;;;4920177;28;20488;-84
2022/03/17 03:34:24;;;;;;;42.05;30.65;;;10.60;99.90;;;;;;4962153;28;20042;-84
2022/03/17 03:39:35;;;;;;;38.45;28.98;;;10.30;99.90;;;;;;4967112;28;20504;-84
2022/03/17 03:42:02;;;;;;;41.13;30.83;;;10.50;99.90;;;;;;4946992;28;20077;-84
2022/03/17 03:44:28;;;;;;;44.25;30.90;;;10.50;99.90;;;;;;4949877;28;20112;-84
2022/03/17 03:46:54;;;;;;;45.75;32.53;;;10.40;99.90;;;;;;4971227;28;20599;-86
2022/03/17 03:49:21;;;;;;;46.17;32.80;;;10.40;99.90;;;;;;4954087;28;20077;-84
2022/03/17 03:51:47;;;;;;;46.42;33.50;;;10.00;99.90;;;;;;4947953;28;20038;-83
2022/03/17 03:54:13;;;;;;;45.85;33.22;;;10.30;99.90;;;;;;4940471;28;20043;-84
2022/03/17 03:56:47;;;;;;;45.97;34.33;;;10.30;99.90;;;;;;4936373;28;20089;-84
2022/03/17 03:59:21;;;;;;;51.15;35.78;;;10.30;99.90;;;;;;4968929;28;20077;-84
2022/03/17 04:01:52;;;;;;;47.33;34.20;;;10.20;99.90;;;;;;4937127;28;20038;-83
2022/03/17 04:04:20;;;;;;;51.20;35.22;;;10.20;99.90;;;;;;4948235;28;20811;-84
2022/03/17 04:06:54;;;;;;;47.65;34.13;;;10.20;99.90;;;;;;4931965;28;20512;-85
2022/03/17 04:09:23;;;;;;;52.55;36.28;;;10.20;99.90;;;;;;4969960;28;20058;-84
2022/03/17 04:11:50;;;;;;;51.60;36.10;;;10.10;99.90;;;;;;4965151;28;20038;-86
2022/03/17 04:14:17;;;;;;;53.28;37.45;;;10.10;99.90;;;;;;4954743;28;20098;-82
2022/03/17 04:16:43;;;;;;;51.25;35.80;;;10.10;99.90;;;;;;4965350;28;20042;-83
2022/03/17 04:19:09;;;;;;;56.13;37.20;;;10.10;99.90;;;;;;4950045;28;20492;-84
2022/03/17 04:21:35;;;;;;;53.92;35.63;;;10.10;99.90;;;;;;4916354;28;20042;-84
2022/03/17 04:24:01;;;;;;;39.58;27.08;;;10.10;99.90;;;;;;4969998;28;20037;-84
2022/03/17 04:26:27;;;;;;;21.45;14.80;;;10.10;99.90;;;;;;4931360;28;20054;-84
2022/03/17 04:28:53;;;;;;;16.48;10.88;;;10.00;99.90;;;;;;4937913;28;20089;-83
2022/03/17 04:31:20;;;;;;;14.13;10.43;;;10.20;99.90;;;;;;4920540;28;20125;-84
2022/03/17 04:33:48;;;;;;;19.42;11.88;;;9.30;99.90;;;;;;4958441;28;20515;-84
2022/03/17 04:36:13;;;;;;;16.90;12.38;;;9.20;99.90;;;;;;4951001;28;20130;-84
2022/03/17 04:38:39;;;;;;;17.25;11.18;;;9.40;99.90;;;;;;4950638;28;20120;-83
2022/03/17 04:41:06;;;;;;;16.52;10.40;;;9.40;99.90;;;;;;4950761;28;20061;-83
2022/03/17 04:43:32;;;;;;;16.65;11.57;;;9.00;99.90;;;;;;4947987;28;20038;-85
2022/03/17 04:45:59;;;;;;;13.40;10.55;;;8.90;99.90;;;;;;4951472;28;20038;-83
2022/03/17 04:48:25;;;;;;;14.35;9.45;;;8.90;99.90;;;;;;4949569;28;20041;-84
2022/03/17 04:50:50;;;;;;;12.15;8.93;;;8.80;99.90;;;;;;4953206;28;20042;-83
2022/03/17 04:53:32;;;;;;;15.05;9.63;;;8.90;99.90;;;;;;4941986;28;20057;-84
2022/03/17 04:56:02;;;;;;;18.00;8.90;;;8.90;99.90;;;;;;4977799;28;20126;-84
2022/03/17 04:58:29;;;;;;;14.68;9.73;;;8.90;99.90;;;;;;4945189;28;20039;-85
2022/03/17 05:00:57;;;;;;;15.88;8.77;;;8.70;99.90;;;;;;4963676;28;20535;-83
2022/03/17 05:03:23;;;;;;;14.88;9.25;;;8.60;99.90;;;;;;4961175;28;20150;-84
2022/03/17 05:05:52;;;;;;;13.15;7.63;;;8.50;99.90;;;;;;4964996;28;20038;-83
2022/03/17 05:08:18;;;;;;;17.30;10.00;;;8.50;99.90;;;;;;4945211;28;20105;-83
2022/03/17 05:10:44;;;;;;;16.70;10.43;;;8.50;99.90;;;;;;4946087;28;20042;-84
2022/03/17 05:13:11;;;;;;;20.55;12.15;;;8.70;99.90;;;;;;4958954;28;20049;-82
2022/03/17 05:15:38;;;;;;;26.90;12.20;;;8.50;99.90;;;;;;4952160;28;20039;-84
2022/03/17 05:18:06;;;;;;;24.90;13.38;;;8.50;99.90;;;;;;4960456;28;20065;-84
2022/03/17 05:20:33;;;;;;;24.02;13.00;;;8.50;99.90;;;;;;4949838;28;20073;-83
2022/03/17 05:22:59;;;;;;;19.25;11.75;;;8.50;99.90;;;;;;4933165;28;20046;-83
2022/03/17 05:25:25;;;;;;;27.98;11.57;;;8.40;99.90;;;;;;4945899;28;20043;-83
2022/03/17 05:27:51;;;;;;;20.92;11.38;;;8.40;99.90;;;;;;4947122;28;20078;-83
2022/03/17 05:30:19;;;;;;;20.45;11.38;;;8.90;99.90;;;;;;4940285;28;20038;-83
2022/03/17 05:32:46;;;;;;;23.92;10.95;;;8.40;99.90;;;;;;4952738;28;20610;-83
2022/03/17 05:35:14;;;;;;;24.92;10.35;;;8.30;99.90;;;;;;4960722;28;20546;-84
2022/03/17 05:37:40;;;;;;;19.52;8.23;;;8.30;99.90;;;;;;4931372;28;20088;-84
2022/03/17 05:40:14;;;;;;;18.30;8.35;;;8.80;99.90;;;;;;4951756;28;20039;-83
2022/03/17 05:42:47;;;;;;;22.77;8.60;;;8.30;99.90;;;;;;4958794;28;20042;-83
2022/03/17 05:45:15;;;;;;;17.50;6.60;;;8.30;99.90;;;;;;4938647;28;20054;-83
2022/03/17 05:47:46;;;;;;;18.33;6.45;;;8.30;99.90;;;;;;4952472;28;20033;-85
2022/03/17 05:50:16;;;;;;;17.23;5.38;;;8.20;99.90;;;;;;4964072;28;20035;-83
2022/03/17 05:52:43;;;;;;;17.58;5.40;;;8.20;99.90;;;;;;4963679;28;20049;-84
2022/03/17 05:55:13;;;;;;;17.15;4.65;;;8.20;99.90;;;;;;4952986;28;20500;-85
2022/03/17 05:57:40;;;;;;;16.75;5.47;;;8.20;99.90;;;;;;4975414;28;20104;-85
2022/03/17 06:00:08;;;;;;;14.93;4.53;;;8.80;99.90;;;;;;4952090;28;20580;-84
2022/03/17 06:02:34;;;;;;;16.20;4.63;;;8.30;99.90;;;;;;4959300;28;20035;-83
2022/03/17 06:05:01;;;;;;;17.55;4.45;;;8.50;99.90;;;;;;4961704;28;20109;-83
2022/03/17 06:07:41;;;;;;;19.55;5.85;;;8.20;99.90;;;;;;4952927;28;20121;-83
2022/03/17 06:10:17;;;;;;;16.70;5.25;;;8.20;99.90;;;;;;4970937;28;20046;-82
2022/03/17 06:12:44;;;;;;;13.40;4.18;;;8.20;99.90;;;;;;4967089;28;20065;-83
2022/03/17 06:15:12;;;;;;;14.88;3.78;;;8.70;99.90;;;;;;4945955;28;20050;-82
2022/03/17 06:17:41;;;;;;;10.00;3.20;;;8.00;99.90;;;;;;4969655;28;20532;-83
2022/03/17 06:20:12;;;;;;;15.68;3.45;;;8.00;99.90;;;;;;4956298;28;20076;-83
2022/03/17 06:22:43;;;;;;;8.25;2.20;;;8.00;99.90;;;;;;4955368;28;20416;-82
2022/03/17 06:25:10;;;;;;;12.40;2.95;;;8.00;99.90;;;;;;4970629;28;20110;-83
2022/03/17 06:27:35;;;;;;;10.13;2.55;;;8.50;99.90;;;;;;4966171;28;20046;-83
2022/03/17 06:30:06;;;;;;;10.93;2.60;;;8.50;99.90;;;;;;4941044;28;20034;-83
2022/03/17 06:32:33;;;;;;;14.63;3.05;;;8.00;99.90;;;;;;4969790;28;20051;-83
2022/03/17 06:34:59;;;;;;;16.08;2.78;;;8.00;99.90;;;;;;4940777;28;20035;-84
2022/03/17 06:37:25;;;;;;;11.25;3.75;;;7.90;99.90;;;;;;4950597;28;20536;-83
2022/03/17 06:39:50;;;;;;;12.95;3.53;;;8.40;99.90;;;;;;4951970;28;20058;-83
2022/03/17 06:42:16;;;;;;;13.45;3.03;;;8.00;99.90;;;;;;4941111;28;20113;-83
2022/03/17 06:44:42;;;;;;;16.55;3.50;;;7.90;99.90;;;;;;4952051;28;20034;-84
2022/03/17 06:47:08;;;;;;;16.45;2.80;;;8.00;99.90;;;;;;4939547;28;20490;-83
2022/03/17 06:49:33;;;;;;;13.95;2.90;;;7.80;99.90;;;;;;4937980;28;20034;-84
2022/03/17 06:51:59;;;;;;;19.63;3.33;;;7.80;99.90;;;;;;4931871;28;20092;-83
2022/03/17 06:54:25;;;;;;;12.70;2.40;;;8.00;99.90;;;;;;4947567;28;20053;-83
2022/03/17 06:56:51;;;;;;;13.35;2.25;;;8.20;99.90;;;;;;4960844;28;20391;-84
2022/03/17 06:59:16;;;;;;;16.33;2.67;;;7.90;99.90;;;;;;4951062;28;20525;-83
2022/03/17 07:01:42;;;;;;;19.60;4.35;;;7.90;99.90;;;;;;4936646;28;20050;-85
2022/03/17 07:04:07;;;;;;;12.13;2.42;;;7.90;99.90;;;;;;4936490;28;20066;-84
2022/03/17 07:06:33;;;;;;;26.33;3.95;;;7.80;99.90;;;;;;4936642;28;20137;-85
2022/03/17 07:08:59;;;;;;;17.48;3.08;;;7.90;99.90;;;;;;4925917;28;20542;-84
2022/03/17 07:11:24;;;;;;;13.60;2.90;;;7.90;99.90;;;;;;4936661;28;20034;-84
2022/03/17 07:13:50;;;;;;;16.92;2.58;;;8.20;99.90;;;;;;4950317;28;20055;-83
2022/03/17 07:16:18;;;;;;;14.07;2.63;;;7.80;99.90;;;;;;4952922;28;20050;-84
2022/03/17 07:18:44;;;;;;;14.50;2.90;;;8.10;99.90;;;;;;4938535;28;20039;-84
2022/03/17 07:21:10;;;;;;;14.75;2.72;;;7.80;99.90;;;;;;4964035;28;20041;-83
2022/03/17 07:23:35;;;;;;;13.52;2.83;;;8.50;99.90;;;;;;4962636;28;20034;-84
2022/03/17 07:26:03;;;;;;;17.63;2.60;;;7.70;99.90;;;;;;4934680;28;20047;-84
2022/03/17 07:28:29;;;;;;;25.00;3.10;;;7.80;99.90;;;;;;4965776;28;20158;-82
2022/03/17 07:30:55;;;;;;;18.85;4.15;;;7.70;99.90;;;;;;4956664;28;20115;-84
2022/03/17 07:33:20;;;;;;;13.02;2.72;;;7.70;99.90;;;;;;4947563;28;20085;-84
2022/03/17 07:35:58;;;;;;;11.07;2.38;;;8.00;99.90;;;;;;4939343;28;20089;-84
2022/03/17 07:38:24;;;;;;;13.82;2.60;;;8.40;99.90;;;;;;4942714;28;20042;-85
2022/03/17 07:40:50;;;;;;;17.23;2.65;;;7.70;99.90;;;;;;4954517;28;20105;-84
2022/03/17 07:43:15;;;;;;;15.27;3.20;;;7.70;99.90;;;;;;4940228;28;20069;-85
2022/03/17 07:45:41;;;;;;;15.63;3.38;;;7.70;99.90;;;;;;4947598;28;20046;-85
2022/03/17 07:48:07;;;;;;;16.48;2.97;;;8.00;99.90;;;;;;4938922;28;20066;-84
2022/03/17 07:50:35;;;;;;;18.83;3.90;;;8.10;99.90;;;;;;4963720;28;20130;-84
2022/03/17 07:53:01;;;;;;;15.40;3.10;;;7.70;99.90;;;;;;4946898;28;20413;-83
2022/03/17 07:55:27;;;;;;;19.95;4.65;;;7.70;99.90;;;;;;4957142;28;20153;-84
2022/03/17 07:57:53;;;;;;;17.75;3.58;;;7.70;99.90;;;;;;4948996;28;20041;-84
2022/03/17 08:00:19;;;;;;;16.70;3.45;;;8.00;99.90;;;;;;4934269;28;20066;-85
2022/03/17 08:02:45;;;;;;;19.65;2.50;;;7.90;99.90;;;;;;4943996;28;20158;-83
2022/03/17 08:05:14;;;;;;;11.27;2.20;;;7.70;99.90;;;;;;4943877;28;20385;-85
2022/03/17 08:07:40;;;;;;;18.48;2.80;;;8.40;99.90;;;;;;4946543;28;20057;-85
2022/03/17 08:10:07;;;;;;;17.52;3.03;;;7.90;99.90;;;;;;4948363;28;20046;-86
2022/03/17 08:12:34;;;;;;;18.05;3.00;;;7.80;99.90;;;;;;4938897;28;20042;-83
2022/03/17 08:15:01;;;;;;;18.52;3.60;;;8.20;99.90;;;;;;4974025;28;20050;-85
2022/03/17 08:17:28;;;;;;;17.88;3.15;;;8.30;99.90;;;;;;4968153;28;20114;-86
2022/03/17 08:19:54;;;;;;;21.05;3.72;;;8.20;99.90;;;;;;4959555;28;20043;-88
2022/03/17 08:22:20;;;;;;;26.55;7.07;;;7.70;99.90;;;;;;4975596;28;20062;-87
2022/03/17 08:24:49;;;;;;;12.07;2.33;;;7.70;99.90;;;;;;4958110;28;20070;-85
2022/03/17 08:27:14;;;;;;;16.02;2.95;;;7.70;99.90;;;;;;4974202;28;20516;-85
2022/03/17 08:29:40;;;;;;;11.82;2.67;;;7.70;99.90;;;;;;4951418;28;20106;-86
2022/03/17 08:32:07;;;;;;;14.10;2.67;;;7.70;99.90;;;;;;4949183;28;20058;-84
2022/03/17 08:34:32;;;;;;;22.55;3.10;;;7.80;99.90;;;;;;4943977;28;20570;-85
2022/03/17 08:36:59;;;;;;;13.60;2.75;;;7.80;99.90;;;;;;4945839;28;20046;-86
2022/03/17 08:39:26;;;;;;;17.75;2.40;;;8.50;99.90;;;;;;4940230;28;20035;-84
2022/03/17 08:41:52;;;;;;;11.00;2.40;;;8.50;99.90;;;;;;4964076;28;20493;-86
2022/03/17 08:44:19;;;;;;;16.70;3.10;;;8.00;99.90;;;;;;4947668;28;20046;-85
2022/03/17 08:49:30;;;;;;;17.67;2.67;;;8.10;99.90;;;;;;4952301;28;20505;-86
2022/03/17 08:51:57;;;;;;;13.95;2.10;;;7.90;99.90;;;;;;4916339;28;20062;-84
2022/03/17 08:54:25;;;;;;;19.58;2.58;;;7.90;99.90;;;;;;4942832;28;20043;-84
2022/03/17 08:56:52;;;;;;;12.65;2.22;;;8.10;99.90;;;;;;4947670;28;20035;-85
2022/03/17 08:59:18;;;;;;;14.98;2.85;;;8.30;99.90;;;;;;4929890;28;20038;-86
2022/03/17 09:01:44;;;;;;;17.08;3.22;;;8.00;99.90;;;;;;4936785;28;20432;-86
2022/03/17 09:04:13;;;;;;;12.82;3.35;;;8.90;99.90;;;;;;4940771;28;20042;-85
2022/03/17 09:06:41;;;;;;;17.20;2.72;;;8.50;99.90;;;;;;4938594;28;20089;-85
2022/03/17 09:09:07;;;;;;;8.00;2.25;;;8.50;99.90;;;;;;4948503;28;20126;-85
2022/03/17 09:11:34;;;;;;;19.08;2.80;;;8.40;99.90;;;;;;4939451;28;20145;-84
2022/03/17 09:13:59;;;;;;;13.57;2.80;;;8.50;99.90;;;;;;4928000;28;20034;-86
2022/03/17 09:16:25;;;;;;;11.07;2.38;;;8.40;99.90;;;;;;4936599;28;20042;-86
2022/03/17 09:18:51;;;;;;;16.58;2.58;;;8.70;99.90;;;;;;4953922;28;20128;-84
2022/03/17 09:21:17;;;;;;;17.27;3.13;;;8.60;99.90;;;;;;4936186;28;20128;-85
2022/03/17 09:23:43;;;;;;;10.70;2.35;;;8.70;99.90;;;;;;4961342;28;20078;-84
2022/03/17 09:26:09;;;;;;;10.82;2.33;;;8.80;99.90;;;;;;4959511;28;20046;-84
2022/03/17 09:28:35;;;;;;;11.15;2.83;;;8.80;99.90;;;;;;4947404;28;20070;-84
2022/03/17 09:31:01;;;;;;;13.25;2.47;;;8.80;99.90;;;;;;4937987;28;20507;-85
2022/03/17 09:33:27;;;;;;;12.57;2.08;;;8.80;99.90;;;;;;4956811;28;20420;-85
2022/03/17 09:35:53;;;;;;;14.02;2.50;;;8.90;99.90;;;;;;4953387;28;20045;-84
2022/03/17 09:38:20;;;;;;;18.77;3.78;;;8.90;99.90;;;;;;4945425;28;20074;-86
2022/03/17 09:40:46;;;;;;;15.50;2.58;;;9.00;99.90;;;;;;4963149;28;20097;-87
2022/03/17 09:43:28;;;;;;;21.20;3.13;;;9.10;99.90;;;;;;4945310;28;20047;-87
2022/03/17 09:45:55;;;;;;;16.88;2.22;;;9.20;99.90;;;;;;4944912;28;20326;-84
2022/03/17 09:48:23;;;;;;;11.82;2.95;;;9.20;99.90;;;;;;4955238;28;20575;-84
2022/03/17 09:50:55;;;;;;;13.43;2.78;;;9.10;99.90;;;;;;4952393;28;20034;-84
2022/03/17 09:53:25;;;;;;;12.02;2.97;;;9.10;99.90;;;;;;4974751;28;20331;-87
2022/03/17 09:55:51;;;;;;;16.17;2.33;;;9.00;99.90;;;;;;4969359;28;20121;-84
2022/03/17 09:58:18;;;;;;;14.35;2.40;;;9.20;99.90;;;;;;4965594;28;20046;-85
2022/03/17 10:00:47;;;;;;;20.05;3.10;;;9.20;99.90;;;;;;4970329;28;20035;-84
2022/03/17 10:03:17;;;;;;;11.90;2.30;;;9.20;99.90;;;;;;4941882;28;20042;-84
2022/03/17 10:05:45;;;;;;;13.77;2.22;;;9.30;99.90;;;;;;4968452;28;20518;-85
2022/03/17 10:08:12;;;;;;;21.33;2.78;;;9.10;99.90;;;;;;4939533;28;20038;-83
2022/03/17 10:10:46;;;;;;;15.35;2.72;;;9.10;99.90;;;;;;4936014;28;20050;-87
2022/03/17 10:13:42;;;;;;;14.15;2.22;;;9.40;99.90;;;;;;4950615;28;20046;-88
2022/03/17 10:16:19;;;;;;;12.60;2.95;;;9.00;99.90;;;;;;4943433;28;20050;-84
2022/03/17 10:18:55;;;;;;;11.00;2.78;;;9.50;99.90;;;;;;4948046;28;20687;-86
2022/03/17 10:21:24;;;;;;;15.95;3.03;;;9.70;99.60;;;;;;4977559;28;20053;-87
2022/03/17 10:23:54;;;;;;;10.40;3.17;;;9.80;99.60;;;;;;4950064;28;20034;-86
2022/03/17 10:26:39;;;;;;;9.48;2.50;;;10.00;99.50;;;;;;4953848;28;20066;-84
2022/03/17 10:29:19;;;;;;;13.50;2.58;;;10.00;98.20;;;;;;4971145;28;20709;-87
2022/03/17 10:31:52;;;;;;;14.68;2.72;;;9.90;98.30;;;;;;4950183;28;20034;-86
2022/03/17 10:34:19;;;;;;;14.23;3.03;;;9.80;98.50;;;;;;4957409;28;20085;-87
2022/03/17 10:36:45;;;;;;;13.13;3.58;;;9.70;99.00;;;;;;4971879;28;20038;-84
2022/03/17 10:39:12;;;;;;;16.23;2.95;;;9.40;99.20;;;;;;4954541;28;20117;-84
2022/03/17 10:41:42;;;;;;;14.57;3.03;;;9.90;99.60;;;;;;4964421;28;20042;-85
2022/03/17 10:44:12;;;;;;;18.48;3.45;;;9.70;98.20;;;;;;4944856;28;20035;-83
2022/03/17 10:46:52;;;;;;;16.30;3.38;;;9.70;98.70;;;;;;4960242;28;20038;-85
2022/03/17 10:49:18;;;;;;;20.63;4.15;;;9.70;98.70;;;;;;4956029;28;20045;-84
2022/03/17 10:51:44;;;;;;;18.13;2.90;;;10.20;99.20;;;;;;4937040;28;20042;-85
2022/03/17 10:54:15;;;;;;;20.27;3.90;;;10.00;99.50;;;;;;4962007;28;20042;-83
2022/03/17 10:56:42;;;;;;;19.25;4.15;;;9.90;98.40;;;;;;4973888;28;20136;-86
2022/03/17 10:59:08;;;;;;;15.82;4.43;;;9.90;97.60;;;;;;4963647;28;20049;-86
2022/03/17 11:01:39;;;;;;;13.38;2.40;;;10.40;98.70;;;;;;4948636;28;20038;-85
2022/03/17 11:04:06;;;;;;;14.25;2.92;;;10.10;98.80;;;;;;4972088;28;20538;-84
2022/03/17 11:06:33;;;;;;;12.48;2.42;;;10.00;96.60;;;;;;4944528;28;20046;-85
2022/03/17 11:09:07;;;;;;;19.58;3.45;;;10.30;97.10;;;;;;4965344;28;20057;-87
2022/03/17 11:11:40;;;;;;;8.50;2.42;;;10.40;97.90;;;;;;4931687;28;20045;-87
2022/03/17 11:14:06;;;;;;;14.25;2.55;;;10.50;97.80;;;;;;4944049;28;20050;-86
2022/03/17 11:16:46;;;;;;;14.05;2.78;;;10.60;97.00;;;;;;4931862;28;20042;-88
2022/03/17 11:19:17;;;;;;;16.30;2.65;;;10.40;95.90;;;;;;4947489;28;20057;-83
2022/03/17 11:21:49;;;;;;;12.25;3.38;;;10.40;96.80;;;;;;4964285;28;20959;-84
2022/03/17 11:24:19;;;;;;;12.82;3.42;;;10.40;96.60;;;;;;4966472;28;20042;-86
2022/03/17 11:26:46;;;;;;;10.02;2.78;;;10.40;96.30;;;;;;4938340;28;20129;-85
2022/03/17 11:29:14;;;;;;;12.27;3.22;;;10.30;95.40;;;;;;4960392;28;20046;-87
2022/03/17 11:31:49;;;;;;;14.05;2.92;;;10.20;95.30;;;;;;4965122;28;20033;-92
2022/03/17 11:34:46;;;;;;;14.85;3.15;;;10.60;96.00;;;;;;4969263;28;20053;-88
2022/03/17 11:37:27;;;;;;;12.90;2.58;;;10.40;95.40;;;;;;4967009;28;20516;-87
2022/03/17 11:39:56;;;;;;;12.48;2.42;;;10.60;96.20;;;;;;4953012;28;20070;-87
2022/03/17 11:42:35;;;;;;;9.73;2.20;;;10.50;95.30;;;;;;4947058;28;20066;-87
2022/03/17 11:45:29;;;;;;;13.80;2.42;;;10.40;94.60;;;;;;4963681;28;20070;-85
2022/03/17 11:47:57;;;;;;;9.75;1.95;;;10.60;94.90;;;;;;4965444;28;20039;-86
2022/03/17 11:50:36;;;;;;;13.48;2.38;;;10.60;95.00;;;;;;4958266;28;20066;-84
2022/03/17 11:53:20;;;;;;;10.82;2.45;;;10.50;94.00;;;;;;4951722;28;20128;-83
2022/03/17 11:55:45;;;;;;;16.70;4.32;;;10.70;95.40;;;;;;4974174;28;20116;-85
2022/03/17 11:58:39;;;;;;;11.20;2.35;;;10.60;94.80;;;;;;4958233;28;20054;-84
2022/03/17 12:01:14;;;;;;;18.58;3.30;;;10.60;94.40;;;;;;4955153;28;20989;-87
2022/03/17 12:03:45;;;;;;;13.05;2.58;;;10.50;94.50;;;;;;4967386;28;20042;-84
2022/03/17 12:06:17;;;;;;;15.40;2.55;;;10.50;94.40;;;;;;4972275;28;21319;-84
2022/03/17 12:09:07;;;;;;;16.23;3.00;;;10.70;94.70;;;;;;4954478;28;20077;-84
2022/03/17 12:11:47;;;;;;;12.40;2.92;;;10.80;94.40;;;;;;4965890;28;20129;-85
2022/03/17 12:14:21;;;;;;;9.75;2.20;;;10.40;93.70;;;;;;4969691;28;20097;-86
2022/03/17 12:16:51;;;;;;;;;;;11.20;93.30;;;;;;4948703;28;20541;-89
2022/03/17 12:19:37;;;;;;;17.00;2.83;;;11.00;92.90;;;;;;4956155;28;19985;-85
2022/03/17 12:22:14;;;;;;;13.27;3.42;;;11.10;93.90;;;;;;4966698;28;20038;-87
2022/03/17 12:24:45;;;;;;;19.00;2.92;;;11.00;92.60;;;;;;4961273;28;20062;-91
2022/03/17 12:27:30;;;;;;;15.40;2.67;;;11.10;92.70;;;;;;4952074;28;20047;-86
2022/03/17 12:30:06;;;;;;;7.93;2.40;;;11.20;91.60;;;;;;4945371;28;20034;-88
2022/03/17 12:32:38;;;;;;;15.77;2.28;;;11.60;91.70;;;;;;4954226;28;20125;-91
2022/03/17 12:35:05;;;;;;;13.05;2.83;;;11.50;91.60;;;;;;4949206;28;20042;-85
2022/03/17 12:37:33;;;;;;;12.20;2.80;;;11.50;91.80;;;;;;4928378;28;20381;-87
2022/03/17 12:40:02;;;;;;;8.77;1.90;;;11.70;92.10;;;;;;4943806;28;20046;-82
2022/03/17 12:42:30;;;;;;;13.27;2.42;;;11.70;90.70;;;;;;4949601;28;20037;-85
2022/03/17 12:45:06;;;;;;;8.77;2.10;;;11.80;90.60;;;;;;4960287;28;20038;-89
2022/03/17 12:47:34;;;;;;;11.27;2.17;;;11.70;89.20;;;;;;4959712;28;20055;-82
2022/03/17 12:50:03;;;;;;;11.02;1.92;;;12.00;90.60;;;;;;4931753;28;20050;-87
2022/03/17 12:52:30;;;;;;;8.85;2.00;;;11.80;88.80;;;;;;4943865;28;20034;-85
2022/03/17 12:55:06;;;;;;;16.02;3.40;;;11.90;86.80;;;;;;4949946;28;20126;-86